Catàleg de serveis del Meteocat
Campanya meteocatpedra

Dades de l'estació automàtica Santa Coloma de Queralt

?
?
Resum diari 21:30 TU
Dades diàries de l'estació meteorològica
Temperatura mitjana 11.0 °C
Temperatura màxima 16.2 °C 13:50 TU
Temperatura mínima 7.4 °C 5:29 TU
Humitat relativa mitjana 72%
Precipitació acumulada 0.0 mm
Ratxa màxima del vent (6 m) 58.3 km/h - 77º 14:32 TU
Irradiació solar global 12.9 MJ/m2

El tram horari està expressat en Temps Universal (TU). Cal sumar una hora en horari d'hivern i dues en horari d'estiu per passar a l'hora oficial.

Santa Coloma de Queralt

Metadades estació meteorol´gica
Municipi Santa Coloma de Queralt
Comarca Conca de Barberà
Altitud 709 m
Data alta 19.11.1996
Estat actual Operativa
Dades de període
Període
TU
TM
°C
TX
°C
TN
°C
HRM
%
PPT
mm
VVM (6 m)
km/h
DVM (6 m)
graus
VVX (6 m)
km/h
RS
W/m2
00:00 - 00:30 8.8 8.8 8.8 94 0.0 14.8 100 28.4 0
00:30 - 01:00 8.8 8.8 8.7 93 0.0 10.8 97 20.5 0
01:00 - 01:30 8.7 8.8 8.7 93 0.0 9.0 114 18.7 0
01:30 - 02:00 8.7 8.7 8.6 93 0.0 14.0 111 25.6 0
02:00 - 02:30 8.7 8.8 8.7 93 0.0 13.7 108 23.0 0
02:30 - 03:00 8.9 9.0 8.7 93 0.0 14.8 98 22.3 0
03:00 - 03:30 8.9 8.9 8.8 93 0.0 15.5 94 24.1 0
03:30 - 04:00 8.7 8.8 8.4 92 0.0 15.5 83 25.9 0
04:00 - 04:30 8.4 8.5 8.1 94 0.0 17.3 82 28.1 0
04:30 - 05:00 7.9 8.1 7.7 94 0.0 15.1 86 26.6 0
05:00 - 05:30 7.6 7.8 7.4 92 0.0 10.4 108 18.4 3
05:30 - 06:00 7.6 7.7 7.5 93 0.0 7.6 86 13.3 37
06:00 - 06:30 8.0 8.2 7.7 94 0.0 4.7 95 10.8 88
06:30 - 07:00 8.7 9.2 8.3 88 0.0 10.1 105 20.5 150
07:00 - 07:30 9.8 10.1 9.2 71 0.0 13.0 94 28.4 204
07:30 - 08:00 9.9 10.4 9.7 67 0.0 14.0 91 31.3 158
08:00 - 08:30 10.4 11.1 9.9 69 0.0 19.1 97 31.7 226
08:30 - 09:00 9.9 10.1 9.7 73 0.0 17.6 83 32.0 131
09:00 - 09:30 10.1 10.9 9.8 74 0.0 16.2 95 31.7 211
09:30 - 10:00 11.4 11.8 10.9 65 0.0 20.2 92 32.8 335
10:00 - 10:30 11.3 11.4 11.2 66 0.0 23.0 87 38.5 250
10:30 - 11:00 11.8 12.1 11.4 67 0.0 24.5 87 39.6 302
11:00 - 11:30 12.7 13.3 12.1 63 0.0 32.0 92 50.8 483
11:30 - 12:00 13.3 14.1 12.8 57 0.0 30.6 87 55.8 478
12:00 - 12:30 14.0 14.6 13.6 54 0.0 33.1 77 56.2 646
12:30 - 13:00 14.5 15.1 14.2 52 0.0 31.7 87 52.2 565
13:00 - 13:30 14.9 15.6 14.2 50 0.0 35.6 100 57.6 621
13:30 - 14:00 15.4 16.2 14.7 51 0.0 36.4 107 54.4 582
14:00 - 14:30 14.9 15.3 14.2 56 0.0 36.0 102 56.9 438
14:30 - 15:00 14.1 14.2 13.9 61 0.0 32.8 79 58.3 294
15:00 - 15:30 13.7 14.1 13.5 64 0.0 28.8 89 46.1 274
15:30 - 16:00 13.4 13.6 13.2 64 0.0 30.2 100 47.2 228
16:00 - 16:30 13.1 13.2 13.0 66 0.0 28.1 99 55.1 194
16:30 - 17:00 13.0 13.1 12.8 65 0.0 30.2 100 50.4 142
17:00 - 17:30 12.8 12.9 12.7 63 0.0 27.4 97 47.9 86
17:30 - 18:00 12.7 12.9 12.4 61 0.0 24.5 95 43.9 43
18:00 - 18:30 12.3 12.4 11.9 58 0.0 22.3 106 37.8 14
18:30 - 19:00 11.6 11.9 11.4 57 0.0 20.5 99 49.0 0
19:00 - 19:30 11.1 11.4 10.8 63 0.0 30.2 95 57.2 0
19:30 - 20:00 10.7 10.8 10.6 69 0.0 29.5 102 49.7 0
20:00 - 20:30 10.6 10.6 10.6 70 0.0 26.3 95 44.3 0
20:30 - 21:00 10.8 10.9 10.6 64 0.0 25.2 89 43.2 0
21:00 - 21:30 10.9 10.9 10.8 61 0.0 30.6 84 52.6 0
21:30 - 22:00 10.7 10.8 10.7 62 0.0 33.5 83 57.2 0

Les dades en taronja només han passat un control de qualitat automàtic. Resta pendent la seva validació definitiva.